CST,Max TemperatureF,Mean TemperatureF,Min TemperatureF,Max Dew PointF,MeanDew PointF,Min DewpointF,Max Humidity, Mean Humidity, Min Humidity, Max Sea Level PressureIn, Mean Sea Level PressureIn, Min Sea Level PressureIn, Max VisibilityMiles, Mean VisibilityMiles, Min VisibilityMiles, Max Wind SpeedMPH, Mean Wind SpeedMPH, Max Gust SpeedMPH,PrecipitationIn, CloudCover, Events, WindDirDegrees
2012-11-1,77,55,35,39,35,31,86,54,21,30.04,29.97,29.86,10,10,10,13,7,,0.00,0,,198
2012-11-2,64,53,42,43,40,37,85,61,45,30.09,29.88,29.78,10,10,8,20,11,25,0.00,0,,35
2012-11-3,63,46,30,38,35,29,96,72,38,30.25,30.20,30.09,10,8,5,14,9,,0.00,0,,9
2012-11-4,73,54,36,36,34,31,83,55,26,30.20,30.10,29.98,10,10,10,22,12,29,0.00,1,,231
2012-11-5,53,45,36,37,34,31,83,65,47,30.20,30.14,30.09,10,10,10,24,12,31,0.00,2,,353
2012-11-6,64,50,35,37,28,22,85,49,19,30.18,30.13,30.02,10,10,10,23,12,29,0.00,1,,318
2012-11-7,64,47,30,28,25,22,75,43,24,30.21,30.09,29.94,10,10,10,21,9,28,0.00,0,,164
2012-11-8,66,54,43,38,34,27,68,47,33,29.92,29.84,29.79,10,10,10,25,14,34,0.00,0,,147
2012-11-9,80,58,36,52,41,33,89,61,31,29.80,29.69,29.58,10,10,10,20,8,31,0.00,0,,42
2012-11-10,79,60,41,57,47,36,82,57,36,29.75,29.55,29.43,10,10,8,33,23,46,0.07,2,Rain-Thunderstorm,192
2012-11-11,41,30,19,36,18,9,81,60,31,30.32,30.02,29.77,10,10,10,25,17,33,0.00,3,,328
2012-11-12,52,34,17,19,12,7,78,51,16,30.46,30.39,30.33,10,10,10,24,9,30,0.00,0,,248
2012-11-13,57,39,21,27,22,15,85,52,25,30.40,30.32,30.24,10,10,10,18,11,28,0.00,0,,183
2012-11-14,55,40,26,26,24,21,81,57,28,30.34,30.26,30.18,10,10,10,13,8,,0.00,0,,180
2012-11-15,59,46,33,29,27,24,75,57,29,30.42,30.29,30.17,10,10,10,16,7,,0.00,0,,54
2012-11-16,61,44,28,35,30,25,88,63,35,30.44,30.36,30.26,10,10,10,17,8,23,0.00,0,,134
2012-11-17,66,54,41,39,33,30,65,51,34,30.24,30.14,30.08,10,10,10,31,18,39,0.00,0,,174
2012-11-18,63,54,44,39,34,29,76,52,38,30.09,30.02,29.96,10,10,10,24,18,34,0.00,0,,175
2012-11-19,72,52,32,39,33,29,92,55,24,30.19,30.11,29.99,10,10,10,13,9,20,0.00,0,,285
2012-11-20,71,52,33,36,32,27,82,55,25,30.27,30.19,30.14,10,10,10,15,7,,0.00,0,,216
2012-11-21,75,58,42,47,38,33,89,51,22,30.13,29.98,29.78,10,10,7,36,17,45,0.00,0,,185
2012-11-22,69,52,33,45,35,24,80,52,22,30.39,30.01,29.72,10,10,10,23,14,31,0.00,0,,325
2012-11-23,43,34,25,22,15,12,69,50,30,30.63,30.51,30.35,10,10,10,18,10,29,0.00,0,,341
2012-11-24,62,45,28,24,20,14,63,44,21,30.38,30.06,29.84,10,10,10,24,14,29,0.00,0,,194
2012-11-25,57,44,30,33,27,21,76,58,40,30.05,29.94,29.85,10,10,10,13,9,17,0.00,0,,30
2012-11-26,42,30,17,27,23,14,92,75,49,30.51,30.35,30.06,10,9,6,23,12,31,0.00,1,,19
2012-11-27,51,32,12,27,20,11,92,69,39,30.49,30.34,30.20,10,9,6,24,9,28,0.00,0,,205
2012-11-28,55,38,21,29,25,18,89,67,35,30.37,30.25,30.09,10,10,8,15,7,,0.00,0,,134
2012-11-29,61,42,24,30,27,21,92,64,27,30.06,30.01,29.93,10,10,8,12,7,,0.00,0,,210
2012-11-30,61,44,28,43,30,23,93,64,30,30.11,30.01,29.88,10,10,4,12,7,,0.00,0,,99